ABX weather

Albury Airport
Albury, New South Wales, Australia

Public forecast

Using degrees Celsius for public forecast. Weather courtesy of forecast.io.

METAR (pilot weather report)

Retrieved 2017/11/19 23:00 UTC (16 minutes ago):

YMAY 192300Z AUTO 02003KT 9999 // NCD 23/12 Q1024

TAF (pilot weather forecast)

Closest forecast is Wangaratta Airport, 37.8 nm (70.0 km) WSW. Retrieved 2017/11/19 19:00 UTC (4 hours ago):

TAF TAF YWGT 191737Z 1919/2008 VRB05KT CAVOK